createdAt,value
2019-01-19T00:04:51.080Z,91.90
2019-01-19T00:10:28.712Z,91.90
2019-01-19T00:16:10.644Z,92.10
2019-01-19T00:21:57.216Z,92.50
2019-01-19T00:27:27.207Z,93.00
2019-01-19T00:33:03.184Z,92.50
2019-01-19T00:38:51.575Z,92.70
2019-01-19T00:44:15.583Z,92.40
2019-01-19T00:49:34.858Z,92.20
2019-01-19T00:54:55.944Z,91.80
2019-01-19T01:00:22.535Z,92.20
2019-01-19T01:05:43.671Z,92.30
2019-01-19T01:11:07.461Z,92.30
2019-01-19T01:16:46.764Z,92.70
2019-01-19T01:22:24.147Z,93.10
2019-01-19T01:27:47.722Z,93.10
2019-01-19T01:33:30.519Z,92.80
2019-01-19T01:38:57.428Z,92.30
2019-01-19T01:44:35.252Z,91.70
2019-01-19T01:50:13.953Z,91.30
2019-01-19T01:55:34.824Z,91.60
2019-01-19T02:01:11.022Z,91.80
2019-01-19T02:06:47.152Z,92.20
2019-01-19T02:12:28.947Z,92.00
2019-01-19T02:18:02.035Z,92.10
2019-01-19T02:23:23.216Z,92.20
2019-01-19T02:28:50.280Z,92.00
2019-01-19T02:34:34.369Z,91.80
2019-01-19T02:40:27.267Z,91.80
2019-01-19T02:46:08.900Z,92.00
2019-01-19T02:51:41.984Z,92.20
2019-01-19T02:57:18.363Z,92.40
2019-01-19T03:02:50.734Z,92.50
2019-01-19T03:08:11.848Z,92.60
2019-01-19T03:13:50.359Z,92.70
2019-01-19T03:19:20.208Z,92.80
2019-01-19T03:24:47.104Z,92.90
2019-01-19T03:30:08.345Z,92.90
2019-01-19T03:35:38.501Z,92.90
2019-01-19T03:41:14.648Z,93.00
2019-01-19T03:46:54.075Z,93.10
2019-01-19T03:52:31.599Z,93.00
2019-01-19T03:57:58.113Z,93.00
2019-01-19T04:03:37.291Z,92.90
2019-01-19T04:09:18.862Z,93.00
2019-01-19T04:15:04.083Z,92.70
2019-01-19T04:20:58.543Z,92.60
2019-01-19T04:26:18.299Z,92.90
2019-01-19T04:31:36.123Z,92.70
2019-01-19T04:36:54.121Z,92.60
2019-01-19T04:42:12.220Z,92.60
2019-01-19T04:47:30.179Z,92.50
2019-01-19T04:52:48.011Z,92.40
2019-01-19T04:58:05.835Z,92.40
2019-01-19T05:03:23.664Z,92.30
2019-01-19T05:08:41.493Z,92.60
2019-01-19T05:13:59.320Z,92.60
2019-01-19T05:19:17.143Z,92.60
2019-01-19T05:24:34.987Z,92.50
2019-01-19T05:29:52.874Z,92.20
2019-01-19T05:35:10.712Z,92.10
2019-01-19T05:40:28.533Z,92.20
2019-01-19T05:45:46.366Z,92.50
2019-01-19T05:51:04.255Z,92.00
2019-01-19T05:56:22.083Z,91.90
2019-01-19T06:01:39.953Z,91.80
2019-01-19T06:06:57.769Z,91.70
2019-01-19T06:12:15.660Z,91.80
2019-01-19T06:17:33.483Z,91.70
2019-01-19T06:22:51.313Z,92.20
2019-01-19T06:28:09.140Z,92.40
2019-01-19T06:33:26.971Z,92.10
2019-01-19T06:38:44.797Z,91.80
2019-01-19T06:44:02.627Z,91.40
2019-01-19T06:49:20.461Z,91.80
2019-01-19T06:54:40.251Z,91.40
2019-01-19T06:59:58.083Z,91.30
2019-01-19T07:05:15.955Z,91.20
2019-01-19T07:10:35.570Z,91.30
2019-01-19T07:15:53.383Z,91.40
2019-01-19T07:21:11.184Z,91.30
2019-01-19T07:26:29.012Z,91.10
2019-01-19T07:31:46.860Z,90.60
2019-01-19T07:37:09.797Z,90.10
2019-01-19T07:42:24.244Z,90.00
2019-01-19T07:47:43.131Z,88.90
2019-01-19T07:53:00.958Z,88.40
2019-01-19T07:58:18.851Z,88.80
2019-01-19T08:03:36.676Z,84.30
2019-01-19T08:08:54.514Z,84.30
2019-01-19T08:14:12.336Z,81.50
2019-01-19T08:19:30.165Z,75.20
2019-01-19T08:24:47.992Z,73.10
2019-01-19T08:30:23.345Z,69.70
2019-01-19T08:35:42.147Z,70.10
2019-01-19T08:41:00.031Z,64.20
2019-01-19T08:46:18.211Z,57.60
2019-01-19T08:51:36.074Z,53.90
2019-01-19T08:56:54.179Z,48.40
2019-01-19T09:02:12.302Z,41.30
2019-01-19T09:07:33.853Z,39.50
2019-01-19T09:12:50.107Z,38.60
2019-01-19T09:18:08.259Z,38.70
2019-01-19T09:23:28.000Z,35.20
2019-01-19T09:28:47.094Z,34.20
2019-01-19T09:34:05.195Z,33.40
2019-01-19T09:39:23.394Z,31.10
2019-01-19T09:44:41.512Z,30.70
2019-01-19T09:49:59.618Z,30.00
2019-01-19T09:55:17.729Z,29.20
2019-01-19T10:00:37.847Z,28.00
2019-01-19T10:05:55.610Z,27.30
2019-01-19T10:11:14.095Z,27.20
2019-01-19T10:16:32.236Z,27.30
2019-01-19T10:21:50.399Z,24.80
2019-01-19T10:27:08.490Z,25.20
2019-01-19T10:32:26.591Z,23.50
2019-01-19T10:37:44.686Z,24.80
2019-01-19T10:43:04.155Z,26.10
2019-01-19T10:48:22.276Z,27.40
2019-01-19T10:53:40.416Z,28.20
2019-01-19T10:58:58.499Z,28.20
2019-01-19T11:04:16.586Z,28.50
2019-01-19T11:09:34.686Z,27.60
2019-01-19T11:14:52.805Z,28.10
2019-01-19T11:20:19.343Z,28.70
2019-01-19T11:25:37.465Z,28.30
2019-01-19T11:30:55.555Z,28.70
2019-01-19T11:36:13.664Z,28.30
2019-01-19T11:41:31.768Z,28.70
2019-01-19T11:46:49.866Z,28.60
2019-01-19T11:52:07.947Z,28.20
2019-01-19T11:57:26.051Z,28.40
2019-01-19T12:02:44.208Z,30.50
2019-01-19T12:08:02.332Z,30.40
2019-01-19T12:13:20.435Z,30.10
2019-01-19T12:18:38.547Z,30.00
2019-01-19T12:23:56.670Z,31.50
2019-01-19T12:29:14.480Z,35.60
2019-01-19T12:34:32.311Z,39.40
2019-01-19T12:39:50.136Z,41.20
2019-01-19T12:45:14.228Z,43.00
2019-01-19T12:50:32.040Z,43.70
2019-01-19T12:55:49.931Z,44.10
2019-01-19T13:01:07.815Z,44.10
2019-01-19T13:06:31.626Z,44.80
2019-01-19T13:12:07.839Z,45.30
2019-01-19T13:17:37.811Z,44.40
2019-01-19T13:23:16.908Z,45.00
2019-01-19T13:28:59.415Z,44.60
2019-01-19T13:34:37.031Z,45.40
2019-01-19T13:40:06.855Z,45.10
2019-01-19T13:45:45.371Z,45.20
2019-01-19T13:51:21.648Z,45.60
2019-01-19T13:56:48.517Z,44.60
2019-01-19T14:02:34.804Z,44.30
2019-01-19T14:08:17.328Z,43.90
2019-01-19T14:13:50.453Z,43.10
2019-01-19T14:19:37.507Z,42.60
2019-01-19T14:24:58.591Z,42.30
2019-01-19T14:30:28.895Z,42.60
2019-01-19T14:36:02.236Z,42.60
2019-01-19T14:41:38.217Z,44.00
2019-01-19T14:47:05.147Z,44.20
2019-01-19T14:52:41.111Z,44.00
2019-01-19T14:58:04.980Z,44.30
2019-01-19T15:03:35.263Z,44.20
2019-01-19T15:09:03.904Z,44.60
2019-01-19T15:14:57.003Z,45.10
2019-01-19T15:20:29.319Z,46.00
2019-01-19T15:26:09.343Z,46.10
2019-01-19T15:31:39.170Z,45.50
2019-01-19T15:37:24.672Z,46.50
2019-01-19T15:43:09.428Z,46.10
2019-01-19T15:48:40.663Z,46.70
2019-01-19T15:54:07.494Z,47.30
2019-01-19T15:59:45.348Z,48.10
2019-01-19T16:05:24.603Z,49.00
2019-01-19T16:11:03.943Z,49.30
2019-01-19T16:16:54.347Z,49.90
2019-01-19T16:22:21.151Z,50.30
2019-01-19T16:28:01.738Z,51.30
2019-01-19T16:33:34.528Z,52.10
2019-01-19T16:38:58.665Z,53.00
2019-01-19T16:44:42.183Z,53.70
2019-01-19T16:50:36.912Z,54.00
2019-01-19T16:56:14.517Z,54.40
2019-01-19T17:01:43.987Z,54.60
2019-01-19T17:07:07.750Z,54.80
2019-01-19T17:12:28.833Z,55.00
2019-01-19T17:17:49.909Z,55.20
2019-01-19T17:23:25.723Z,55.80
2019-01-19T17:28:49.679Z,56.30
2019-01-19T17:34:16.611Z,57.10
2019-01-19T17:39:46.782Z,57.80
2019-01-19T17:45:36.335Z,58.30
2019-01-19T17:51:26.216Z,58.50
2019-01-19T17:56:59.324Z,59.20
2019-01-19T18:02:29.627Z,59.70
2019-01-19T20:04:58.885Z,74.00
2019-01-19T20:10:19.181Z,75.30
2019-01-19T20:15:37.156Z,77.60
2019-01-19T20:20:55.185Z,77.00
2019-01-19T20:26:13.091Z,76.60
2019-01-19T20:31:30.984Z,76.10
2019-01-19T20:36:48.888Z,76.20
2019-01-19T20:42:06.790Z,76.50
2019-01-19T20:47:24.714Z,77.20
2019-01-19T20:52:42.769Z,77.30
2019-01-19T20:58:00.599Z,77.90
2019-01-19T21:03:18.749Z,78.50
2019-01-19T21:08:36.858Z,79.60
2019-01-19T21:13:57.169Z,80.50
2019-01-19T21:19:15.294Z,81.40
2019-01-19T21:24:33.132Z,82.70
2019-01-19T21:29:53.708Z,83.80
2019-01-19T21:35:11.831Z,84.70
2019-01-19T21:40:29.680Z,85.60
2019-01-19T21:45:47.517Z,86.50
2019-01-19T21:51:14.150Z,87.40
2019-01-19T21:56:28.643Z,88.20
2019-01-19T22:01:46.487Z,88.90
2019-01-19T22:07:04.342Z,89.50
2019-01-19T22:12:22.440Z,89.80
2019-01-19T22:17:41.344Z,90.00
2019-01-19T22:22:59.210Z,90.40
2019-01-19T22:28:17.060Z,90.10
2019-01-19T22:33:34.959Z,90.00
2019-01-19T22:38:53.376Z,90.30
2019-01-19T22:44:11.251Z,90.50
2019-01-19T22:49:29.090Z,90.80
2019-01-19T22:54:46.982Z,90.60
2019-01-19T23:00:08.075Z,90.80
2019-01-19T23:05:26.779Z,91.00
2019-01-19T23:10:46.451Z,91.40
2019-01-19T23:16:04.391Z,91.20
2019-01-19T23:21:22.223Z,90.90
2019-01-19T23:26:40.327Z,91.20
2019-01-19T23:31:58.161Z,90.80
2019-01-19T23:37:15.999Z,91.00
2019-01-19T23:42:33.872Z,91.10
2019-01-19T23:47:51.740Z,91.30
2019-01-19T23:53:09.577Z,91.20
2019-01-19T23:58:27.411Z,91.30
